createdAt,value
2022-09-25T00:02:01.670Z,10.20
2022-09-25T00:07:04.978Z,10.18
2022-09-25T00:12:08.278Z,10.09
2022-09-25T00:17:12.091Z,10.12
2022-09-25T00:22:21.754Z,10.44
2022-09-25T00:27:25.581Z,10.63
2022-09-25T00:32:29.485Z,10.75
2022-09-25T00:37:33.842Z,10.79
2022-09-25T00:42:37.567Z,10.69
2022-09-25T00:47:41.215Z,10.49
2022-09-25T00:52:44.906Z,10.27
2022-09-25T00:57:48.857Z,10.16
2022-09-25T01:02:53.547Z,10.06
2022-09-25T01:07:57.366Z,9.98
2022-09-25T01:13:00.735Z,9.97
2022-09-25T01:18:04.366Z,9.83
2022-09-25T01:23:08.323Z,9.76
2022-09-25T01:28:12.159Z,9.72
2022-09-25T01:33:15.371Z,9.62
2022-09-25T01:38:19.549Z,9.62
2022-09-25T01:43:23.100Z,9.59
2022-09-25T01:48:26.615Z,9.50
2022-09-25T01:53:29.892Z,9.44
2022-09-25T01:58:34.364Z,9.43
2022-09-25T02:03:39.191Z,9.43
2022-09-25T02:08:44.299Z,9.39
2022-09-25T02:13:47.906Z,9.41
2022-09-25T02:19:09.089Z,9.44
2022-09-25T02:24:15.489Z,9.39
2022-09-25T02:29:19.160Z,9.44
2022-09-25T02:34:22.374Z,9.44
2022-09-25T02:39:25.769Z,9.40
2022-09-25T02:44:29.446Z,9.43
2022-09-25T02:49:32.710Z,9.55
2022-09-25T02:54:35.425Z,9.53
2022-09-25T02:59:38.641Z,9.51
2022-09-25T03:04:41.842Z,9.54
2022-09-25T03:09:46.880Z,9.40
2022-09-25T03:14:53.423Z,9.23
2022-09-25T03:19:56.959Z,9.16
2022-09-25T03:25:00.134Z,9.05
2022-09-25T03:30:03.431Z,8.91
2022-09-25T03:35:06.208Z,8.94
2022-09-25T03:40:09.438Z,8.91
2022-09-25T03:45:12.125Z,8.94
2022-09-25T03:50:14.802Z,8.86
2022-09-25T03:55:17.905Z,8.80
2022-09-25T04:00:20.602Z,8.90
2022-09-25T04:05:23.671Z,9.08
2022-09-25T04:10:26.360Z,9.02
2022-09-25T04:15:29.078Z,9.01
2022-09-25T04:20:31.778Z,9.03
2022-09-25T04:25:34.510Z,8.91
2022-09-25T04:30:37.201Z,8.77
2022-09-25T04:35:39.889Z,8.88
2022-09-25T04:40:42.623Z,8.92
2022-09-25T04:45:48.982Z,8.98
2022-09-25T04:50:51.723Z,9.00
2022-09-25T04:55:55.967Z,9.05
2022-09-25T05:00:58.719Z,9.18
2022-09-25T05:06:01.558Z,9.26
2022-09-25T05:11:04.522Z,9.30
2022-09-25T05:16:07.458Z,9.32
2022-09-25T05:21:10.360Z,9.43
2022-09-25T05:26:13.175Z,9.50
2022-09-25T05:31:16.703Z,9.55
2022-09-25T05:36:19.765Z,9.72
2022-09-25T05:41:22.454Z,9.73
2022-09-25T05:46:25.246Z,9.76
2022-09-25T05:51:27.947Z,9.76
2022-09-25T05:56:30.671Z,9.82
2022-09-25T06:01:33.630Z,10.07
2022-09-25T06:06:36.463Z,10.22
2022-09-25T06:11:40.800Z,10.23
2022-09-25T06:16:43.932Z,10.55
2022-09-25T06:21:47.347Z,10.57
2022-09-25T06:26:50.270Z,10.62
2022-09-25T06:31:53.037Z,10.70
2022-09-25T06:36:55.757Z,10.81
2022-09-25T06:41:58.477Z,10.90
2022-09-25T06:47:01.785Z,11.09
2022-09-25T06:52:09.729Z,11.35
2022-09-25T06:57:12.803Z,11.53
2022-09-25T07:02:54.476Z,11.75
2022-09-25T07:07:57.154Z,12.10
2022-09-25T07:13:00.450Z,12.41
2022-09-25T07:18:03.653Z,13.03
2022-09-25T07:23:06.836Z,12.81
2022-09-25T07:28:10.038Z,13.18
2022-09-25T07:33:13.482Z,13.11
2022-09-25T07:38:16.770Z,13.33
2022-09-25T07:43:19.940Z,13.14
2022-09-25T07:48:23.360Z,13.42
2022-09-25T07:53:26.487Z,13.47
2022-09-25T07:58:29.714Z,13.66
2022-09-25T08:03:33.023Z,14.12
2022-09-25T08:08:36.153Z,13.94
2022-09-25T08:13:39.616Z,14.23
2022-09-25T08:18:42.921Z,14.40
2022-09-25T08:23:48.203Z,14.52
2022-09-25T08:28:52.171Z,14.38
2022-09-25T08:33:55.598Z,14.78
2022-09-25T08:39:09.077Z,14.59
2022-09-25T08:44:12.408Z,14.27
2022-09-25T08:49:15.761Z,14.06
2022-09-25T08:54:19.055Z,13.85
2022-09-25T08:59:23.365Z,14.13
2022-09-25T09:04:26.853Z,14.15
2022-09-25T09:09:30.146Z,14.03
2022-09-25T09:14:33.901Z,14.01
2022-09-25T09:19:38.272Z,14.44
2022-09-25T09:24:41.457Z,14.72
2022-09-25T09:29:44.733Z,14.87
2022-09-25T09:35:05.779Z,15.04
2022-09-25T09:40:09.902Z,15.00
2022-09-25T09:45:13.644Z,15.90
2022-09-25T09:50:17.328Z,16.92
2022-09-25T09:55:20.557Z,16.41
2022-09-25T10:00:24.180Z,16.42
2022-09-25T10:05:27.383Z,16.94
2022-09-25T10:10:30.763Z,16.62
2022-09-25T10:15:34.026Z,16.58
2022-09-25T10:20:37.292Z,16.77
2022-09-25T10:25:40.470Z,16.77
2022-09-25T10:30:43.780Z,16.78
2022-09-25T10:35:48.689Z,16.63
2022-09-25T10:40:52.164Z,16.82
2022-09-25T10:45:57.333Z,16.69
2022-09-25T10:51:01.102Z,16.40
2022-09-25T10:56:05.147Z,16.72
2022-09-25T11:01:13.601Z,17.23
2022-09-25T11:06:17.643Z,17.82
2022-09-25T11:11:20.801Z,17.65
2022-09-25T11:16:24.551Z,17.37
2022-09-25T11:21:27.831Z,17.44
2022-09-25T11:26:31.257Z,17.61
2022-09-25T11:31:35.058Z,17.22
2022-09-25T11:36:38.993Z,17.48
2022-09-25T11:41:42.280Z,17.37
2022-09-25T11:46:47.715Z,17.46
2022-09-25T11:51:51.322Z,16.71
2022-09-25T11:56:54.987Z,16.67
2022-09-25T12:01:58.216Z,17.26
2022-09-25T12:07:01.769Z,16.79
2022-09-25T12:12:08.772Z,17.35
2022-09-25T12:17:11.934Z,17.19
2022-09-25T12:22:15.824Z,16.91
2022-09-25T12:27:19.275Z,16.68
2022-09-25T12:32:22.698Z,17.06
2022-09-25T12:37:27.702Z,17.14
2022-09-25T12:42:32.406Z,17.10
2022-09-25T12:47:36.415Z,16.89
2022-09-25T12:52:39.830Z,16.24
2022-09-25T12:57:45.918Z,15.95
2022-09-25T13:02:49.523Z,15.57
2022-09-25T13:07:52.965Z,15.56
2022-09-25T13:12:56.934Z,15.37
2022-09-25T13:18:00.374Z,15.44
2022-09-25T13:23:04.708Z,15.21
2022-09-25T13:28:08.273Z,14.83
2022-09-25T13:33:11.835Z,14.47
2022-09-25T13:38:35.442Z,13.74
2022-09-25T13:43:38.802Z,13.16
2022-09-25T13:48:42.395Z,12.86
2022-09-25T13:53:45.969Z,12.67
2022-09-25T13:58:50.069Z,12.53
2022-09-25T14:03:53.721Z,12.38
2022-09-25T14:08:58.244Z,12.37
2022-09-25T14:14:01.990Z,12.38
2022-09-25T14:19:05.479Z,12.48
2022-09-25T14:24:09.116Z,12.58
2022-09-25T14:29:12.790Z,12.60
2022-09-25T14:34:16.576Z,12.75
2022-09-25T14:39:20.321Z,13.18
2022-09-25T14:44:25.958Z,13.36
2022-09-25T14:49:30.327Z,13.59
2022-09-25T14:54:36.790Z,13.96
2022-09-25T14:59:42.461Z,14.04
2022-09-25T15:04:46.268Z,14.09
2022-09-25T15:09:49.909Z,14.25
2022-09-25T15:14:53.537Z,14.30
2022-09-25T15:19:57.739Z,14.22
2022-09-25T15:25:01.349Z,14.11
2022-09-25T15:30:06.716Z,14.11
2022-09-25T15:35:10.163Z,13.86
2022-09-25T15:40:14.996Z,13.58
2022-09-25T15:45:19.355Z,13.39
2022-09-25T15:50:22.969Z,13.51
2022-09-25T15:55:27.091Z,14.15
2022-09-25T16:00:48.818Z,14.53
2022-09-25T16:05:55.533Z,14.41
2022-09-25T16:10:59.128Z,14.31
2022-09-25T16:16:02.604Z,14.31
2022-09-25T16:21:06.815Z,14.16
2022-09-25T16:26:11.372Z,14.00
2022-09-25T16:31:16.499Z,13.66
2022-09-25T16:36:20.209Z,13.43
2022-09-25T16:41:23.938Z,13.19
2022-09-25T16:46:28.388Z,12.97
2022-09-25T16:51:32.485Z,12.87
2022-09-25T16:56:36.347Z,12.79
2022-09-25T17:01:40.421Z,12.61
2022-09-25T17:06:47.848Z,12.33
2022-09-25T17:11:51.925Z,12.34
2022-09-25T17:16:55.481Z,12.24
2022-09-25T17:21:59.559Z,12.24
2022-09-25T17:27:03.455Z,12.23
2022-09-25T17:32:09.203Z,12.16
2022-09-25T17:37:12.962Z,12.24
2022-09-25T17:42:17.667Z,12.21
2022-09-25T17:47:22.393Z,12.26
2022-09-25T17:52:26.673Z,12.25
2022-09-25T17:57:30.686Z,12.21
2022-09-25T18:02:34.445Z,12.17
2022-09-25T18:07:47.363Z,12.10
2022-09-25T18:12:51.134Z,11.97
2022-09-25T18:17:56.349Z,11.89
2022-09-25T18:22:59.820Z,11.84
2022-09-25T18:28:03.923Z,11.73
2022-09-25T18:33:08.788Z,11.81
2022-09-25T18:38:12.604Z,11.80
2022-09-25T18:43:16.286Z,11.71
2022-09-25T18:48:19.688Z,11.58
2022-09-25T18:53:22.797Z,11.56
2022-09-25T18:58:26.538Z,11.55
2022-09-25T19:03:30.728Z,11.52
2022-09-25T19:08:34.371Z,11.52
2022-09-25T19:13:41.370Z,11.53
2022-09-25T19:18:45.680Z,11.57
2022-09-25T19:23:52.374Z,11.60
2022-09-25T19:28:55.662Z,11.68
2022-09-25T19:34:01.281Z,11.74
2022-09-25T19:39:05.074Z,11.74
2022-09-25T19:44:13.190Z,11.80
2022-09-25T19:49:16.835Z,11.84
2022-09-25T19:54:19.503Z,11.90
2022-09-25T19:59:22.248Z,11.89
2022-09-25T20:04:24.940Z,11.89
2022-09-25T20:09:27.614Z,11.95
2022-09-25T20:14:30.277Z,12.02
2022-09-25T20:19:33.077Z,11.85
2022-09-25T20:24:35.813Z,11.74
2022-09-25T20:29:38.714Z,11.62
2022-09-25T20:34:45.627Z,11.52
2022-09-25T20:39:48.330Z,11.50
2022-09-25T20:44:51.620Z,11.43
2022-09-25T20:49:54.359Z,11.34
2022-09-25T20:54:57.088Z,11.26
2022-09-25T21:00:01.833Z,11.24
2022-09-25T21:05:04.592Z,11.12
2022-09-25T21:10:07.267Z,11.10
2022-09-25T21:15:10.574Z,11.05
2022-09-25T21:20:13.473Z,11.03
2022-09-25T21:25:16.879Z,11.13
2022-09-25T21:30:19.621Z,11.07
2022-09-25T21:35:22.620Z,11.08
2022-09-25T21:40:25.767Z,11.04
2022-09-25T21:45:28.509Z,11.03
2022-09-25T21:50:31.202Z,10.98
2022-09-25T21:55:33.964Z,10.97
2022-09-25T22:00:36.625Z,11.03
2022-09-25T22:05:41.921Z,10.97
2022-09-25T22:10:45.325Z,10.99
2022-09-25T22:15:47.989Z,10.95
2022-09-25T22:20:55.150Z,10.93
2022-09-25T22:25:57.818Z,10.93
2022-09-25T22:31:00.576Z,10.87
2022-09-25T22:36:13.294Z,10.90
2022-09-25T22:41:16.069Z,10.88
2022-09-25T22:46:18.840Z,10.81
2022-09-25T22:51:21.565Z,10.80
2022-09-25T22:56:24.258Z,10.75
2022-09-25T23:01:27.352Z,10.74
2022-09-25T23:06:32.898Z,10.67
2022-09-25T23:11:35.640Z,10.64
2022-09-25T23:16:38.532Z,10.51
2022-09-25T23:21:41.333Z,10.36
2022-09-25T23:26:46.755Z,10.48
2022-09-25T23:31:49.674Z,10.56
2022-09-25T23:36:52.494Z,10.57
2022-09-25T23:41:55.233Z,10.59
2022-09-25T23:46:58.089Z,10.59
2022-09-25T23:52:00.918Z,10.60
2022-09-25T23:57:03.774Z,10.64
